sensor_id;sensor_type;location;lat;lon;timestamp;P1;durP1;ratioP1;P2;durP2;ratioP2
62903;SDS011;49000;50.698;13.322;2023-04-24T00:01:39;4.60;;;3.80;;
62903;SDS011;49000;50.698;13.322;2023-04-24T00:04:05;3.30;;;2.93;;
62903;SDS011;49000;50.698;13.322;2023-04-24T00:06:31;5.00;;;3.67;;
62903;SDS011;49000;50.698;13.322;2023-04-24T00:09:02;5.00;;;4.00;;
62903;SDS011;49000;50.698;13.322;2023-04-24T00:11:28;4.47;;;3.47;;
62903;SDS011;49000;50.698;13.322;2023-04-24T00:13:54;4.23;;;3.83;;
62903;SDS011;49000;50.698;13.322;2023-04-24T00:16:19;5.80;;;4.70;;
62903;SDS011;49000;50.698;13.322;2023-04-24T00:18:45;5.63;;;4.30;;
62903;SDS011;49000;50.698;13.322;2023-04-24T00:21:12;4.87;;;4.00;;
62903;SDS011;49000;50.698;13.322;2023-04-24T00:23:38;4.47;;;3.93;;
62903;SDS011;49000;50.698;13.322;2023-04-24T00:26:04;5.67;;;3.90;;
62903;SDS011;49000;50.698;13.322;2023-04-24T00:28:30;4.47;;;3.80;;
62903;SDS011;49000;50.698;13.322;2023-04-24T00:30:55;3.90;;;3.30;;
62903;SDS011;49000;50.698;13.322;2023-04-24T00:33:21;5.53;;;3.47;;
62903;SDS011;49000;50.698;13.322;2023-04-24T00:35:46;4.07;;;3.30;;
62903;SDS011;49000;50.698;13.322;2023-04-24T00:38:12;5.40;;;3.83;;
62903;SDS011;49000;50.698;13.322;2023-04-24T00:40:37;3.83;;;3.40;;
62903;SDS011;49000;50.698;13.322;2023-04-24T00:43:03;4.60;;;3.57;;
62903;SDS011;49000;50.698;13.322;2023-04-24T00:45:28;4.53;;;3.57;;
62903;SDS011;49000;50.698;13.322;2023-04-24T00:47:56;4.57;;;3.90;;
62903;SDS011;49000;50.698;13.322;2023-04-24T00:50:22;3.67;;;3.10;;
62903;SDS011;49000;50.698;13.322;2023-04-24T00:52:49;3.93;;;3.10;;
62903;SDS011;49000;50.698;13.322;2023-04-24T00:55:15;3.87;;;3.03;;
62903;SDS011;49000;50.698;13.322;2023-04-24T00:57:41;3.20;;;2.70;;
62903;SDS011;49000;50.698;13.322;2023-04-24T01:00:07;3.17;;;2.87;;
62903;SDS011;49000;50.698;13.322;2023-04-24T01:02:35;3.97;;;2.67;;
62903;SDS011;49000;50.698;13.322;2023-04-24T01:05:04;2.47;;;2.10;;
62903;SDS011;49000;50.698;13.322;2023-04-24T01:07:32;2.10;;;1.90;;
62903;SDS011;49000;50.698;13.322;2023-04-24T01:09:57;1.93;;;1.73;;
62903;SDS011;49000;50.698;13.322;2023-04-24T01:12:23;2.33;;;2.00;;
62903;SDS011;49000;50.698;13.322;2023-04-24T01:14:49;2.20;;;2.00;;
62903;SDS011;49000;50.698;13.322;2023-04-24T01:17:14;2.07;;;1.80;;
62903;SDS011;49000;50.698;13.322;2023-04-24T01:19:40;1.73;;;1.53;;
62903;SDS011;49000;50.698;13.322;2023-04-24T01:22:15;2.50;;;2.10;;
62903;SDS011;49000;50.698;13.322;2023-04-24T01:24:41;3.40;;;1.90;;
62903;SDS011;49000;50.698;13.322;2023-04-24T01:27:08;1.70;;;1.40;;
62903;SDS011;49000;50.698;13.322;2023-04-24T01:29:34;2.10;;;1.60;;
62903;SDS011;49000;50.698;13.322;2023-04-24T01:32:00;1.40;;;1.30;;
62903;SDS011;49000;50.698;13.322;2023-04-24T01:34:26;1.50;;;1.40;;
62903;SDS011;49000;50.698;13.322;2023-04-24T01:36:52;1.60;;;1.50;;
62903;SDS011;49000;50.698;13.322;2023-04-24T01:39:17;2.20;;;1.60;;
62903;SDS011;49000;50.698;13.322;2023-04-24T01:41:43;1.37;;;1.27;;
62903;SDS011;49000;50.698;13.322;2023-04-24T01:44:08;2.23;;;1.43;;
62903;SDS011;49000;50.698;13.322;2023-04-24T01:46:34;0.93;;;0.90;;
62903;SDS011;49000;50.698;13.322;2023-04-24T01:49:00;3.63;;;1.30;;
62903;SDS011;49000;50.698;13.322;2023-04-24T01:51:26;1.90;;;1.20;;
62903;SDS011;49000;50.698;13.322;2023-04-24T01:53:52;1.43;;;1.07;;
62903;SDS011;49000;50.698;13.322;2023-04-24T01:56:19;1.30;;;0.80;;
62903;SDS011;49000;50.698;13.322;2023-04-24T01:58:46;1.00;;;0.90;;
62903;SDS011;49000;50.698;13.322;2023-04-24T02:01:19;1.47;;;1.00;;
62903;SDS011;49000;50.698;13.322;2023-04-24T02:03:45;1.27;;;0.93;;
62903;SDS011;49000;50.698;13.322;2023-04-24T02:06:10;1.60;;;1.10;;
62903;SDS011;49000;50.698;13.322;2023-04-24T02:08:36;1.33;;;1.10;;
62903;SDS011;49000;50.698;13.322;2023-04-24T02:11:01;1.20;;;1.00;;
62903;SDS011;49000;50.698;13.322;2023-04-24T02:13:27;1.00;;;0.90;;
62903;SDS011;49000;50.698;13.322;2023-04-24T02:15:53;2.03;;;1.07;;
62903;SDS011;49000;50.698;13.322;2023-04-24T02:18:18;1.23;;;0.93;;
62903;SDS011;49000;50.698;13.322;2023-04-24T02:20:44;1.30;;;0.80;;
62903;SDS011;49000;50.698;13.322;2023-04-24T02:23:10;1.33;;;0.80;;
62903;SDS011;49000;50.698;13.322;2023-04-24T02:25:35;2.03;;;0.80;;
62903;SDS011;49000;50.698;13.322;2023-04-24T02:28:01;0.77;;;0.70;;
62903;SDS011;49000;50.698;13.322;2023-04-24T02:30:27;1.23;;;1.00;;
62903;SDS011;49000;50.698;13.322;2023-04-24T02:32:53;0.93;;;0.83;;
62903;SDS011;49000;50.698;13.322;2023-04-24T02:35:18;1.73;;;0.97;;
62903;SDS011;49000;50.698;13.322;2023-04-24T02:37:44;2.23;;;0.90;;
62903;SDS011;49000;50.698;13.322;2023-04-24T02:40:09;0.80;;;0.80;;
62903;SDS011;49000;50.698;13.322;2023-04-24T02:42:35;1.20;;;0.90;;
62903;SDS011;49000;50.698;13.322;2023-04-24T02:45:01;1.03;;;0.90;;
62903;SDS011;49000;50.698;13.322;2023-04-24T02:47:26;1.03;;;0.80;;
62903;SDS011;49000;50.698;13.322;2023-04-24T02:49:51;2.20;;;1.10;;
62903;SDS011;49000;50.698;13.322;2023-04-24T02:52:17;2.00;;;1.00;;
62903;SDS011;49000;50.698;13.322;2023-04-24T02:54:43;2.07;;;0.93;;
62903;SDS011;49000;50.698;13.322;2023-04-24T02:57:08;1.50;;;1.00;;
62903;SDS011;49000;50.698;13.322;2023-04-24T02:59:34;0.93;;;0.80;;
62903;SDS011;49000;50.698;13.322;2023-04-24T03:01:59;3.17;;;0.90;;
62903;SDS011;49000;50.698;13.322;2023-04-24T03:04:25;1.40;;;1.10;;
62903;SDS011;49000;50.698;13.322;2023-04-24T03:06:51;1.97;;;0.90;;
62903;SDS011;49000;50.698;13.322;2023-04-24T03:09:19;1.50;;;0.90;;
62903;SDS011;49000;50.698;13.322;2023-04-24T03:11:45;1.17;;;0.93;;
62903;SDS011;49000;50.698;13.322;2023-04-24T03:14:11;3.47;;;1.00;;
62903;SDS011;49000;50.698;13.322;2023-04-24T03:16:36;1.37;;;1.00;;
62903;SDS011;49000;50.698;13.322;2023-04-24T03:19:02;2.20;;;1.07;;
62903;SDS011;49000;50.698;13.322;2023-04-24T03:21:27;3.47;;;1.00;;
62903;SDS011;49000;50.698;13.322;2023-04-24T03:23:53;1.07;;;0.97;;
62903;SDS011;49000;50.698;13.322;2023-04-24T03:26:18;1.43;;;0.90;;
62903;SDS011;49000;50.698;13.322;2023-04-24T03:28:44;1.43;;;0.90;;
62903;SDS011;49000;50.698;13.322;2023-04-24T03:31:10;2.20;;;0.90;;
62903;SDS011;49000;50.698;13.322;2023-04-24T03:33:35;0.80;;;0.80;;
62903;SDS011;49000;50.698;13.322;2023-04-24T03:36:01;1.47;;;1.00;;
62903;SDS011;49000;50.698;13.322;2023-04-24T03:38:26;3.87;;;1.10;;
62903;SDS011;49000;50.698;13.322;2023-04-24T03:40:52;1.30;;;0.83;;
62903;SDS011;49000;50.698;13.322;2023-04-24T03:43:17;1.57;;;0.90;;
62903;SDS011;49000;50.698;13.322;2023-04-24T03:45:43;1.27;;;0.90;;
62903;SDS011;49000;50.698;13.322;2023-04-24T03:48:08;1.03;;;0.90;;
62903;SDS011;49000;50.698;13.322;2023-04-24T03:50:34;1.30;;;0.90;;
62903;SDS011;49000;50.698;13.322;2023-04-24T03:52:59;1.27;;;0.80;;
62903;SDS011;49000;50.698;13.322;2023-04-24T03:55:25;1.70;;;0.90;;
62903;SDS011;49000;50.698;13.322;2023-04-24T03:57:50;1.07;;;0.83;;
62903;SDS011;49000;50.698;13.322;2023-04-24T04:00:16;1.17;;;1.00;;
62903;SDS011;49000;50.698;13.322;2023-04-24T04:02:41;1.67;;;1.00;;
62903;SDS011;49000;50.698;13.322;2023-04-24T04:05:07;1.30;;;0.90;;
62903;SDS011;49000;50.698;13.322;2023-04-24T04:07:33;1.60;;;0.90;;
62903;SDS011;49000;50.698;13.322;2023-04-24T04:09:58;1.33;;;0.90;;
62903;SDS011;49000;50.698;13.322;2023-04-24T04:12:24;2.40;;;0.90;;
62903;SDS011;49000;50.698;13.322;2023-04-24T04:14:49;1.10;;;0.80;;
62903;SDS011;49000;50.698;13.322;2023-04-24T04:17:15;0.93;;;0.80;;
62903;SDS011;49000;50.698;13.322;2023-04-24T04:19:40;0.90;;;0.70;;
62903;SDS011;49000;50.698;13.322;2023-04-24T04:22:06;1.47;;;0.80;;
62903;SDS011;49000;50.698;13.322;2023-04-24T04:24:33;1.10;;;0.90;;
62903;SDS011;49000;50.698;13.322;2023-04-24T04:27:02;1.37;;;0.80;;
62903;SDS011;49000;50.698;13.322;2023-04-24T04:29:29;0.97;;;0.83;;
62903;SDS011;49000;50.698;13.322;2023-04-24T04:31:56;1.60;;;0.80;;
62903;SDS011;49000;50.698;13.322;2023-04-24T04:34:22;3.10;;;0.80;;
62903;SDS011;49000;50.698;13.322;2023-04-24T04:36:48;1.63;;;0.90;;
62903;SDS011;49000;50.698;13.322;2023-04-24T04:39:13;0.80;;;0.80;;
62903;SDS011;49000;50.698;13.322;2023-04-24T04:41:43;0.93;;;0.90;;
62903;SDS011;49000;50.698;13.322;2023-04-24T04:44:09;2.03;;;0.80;;
62903;SDS011;49000;50.698;13.322;2023-04-24T04:46:34;0.73;;;0.67;;
62903;SDS011;49000;50.698;13.322;2023-04-24T04:49:02;1.80;;;0.83;;
62903;SDS011;49000;50.698;13.322;2023-04-24T04:51:28;3.37;;;0.80;;
62903;SDS011;49000;50.698;13.322;2023-04-24T04:53:53;1.17;;;0.80;;
62903;SDS011;49000;50.698;13.322;2023-04-24T04:56:19;2.43;;;0.80;;
62903;SDS011;49000;50.698;13.322;2023-04-24T04:58:44;1.97;;;0.83;;
62903;SDS011;49000;50.698;13.322;2023-04-24T05:01:10;1.20;;;0.70;;
62903;SDS011;49000;50.698;13.322;2023-04-24T05:03:35;1.77;;;0.70;;
62903;SDS011;49000;50.698;13.322;2023-04-24T05:06:01;1.43;;;0.80;;
62903;SDS011;49000;50.698;13.322;2023-04-24T05:08:27;1.80;;;0.80;;
62903;SDS011;49000;50.698;13.322;2023-04-24T05:10:53;0.97;;;0.77;;
62903;SDS011;49000;50.698;13.322;2023-04-24T05:13:19;2.20;;;0.90;;
62903;SDS011;49000;50.698;13.322;2023-04-24T05:15:45;1.40;;;0.80;;
62903;SDS011;49000;50.698;13.322;2023-04-24T05:18:10;1.77;;;0.77;;
62903;SDS011;49000;50.698;13.322;2023-04-24T05:20:36;1.40;;;0.70;;
62903;SDS011;49000;50.698;13.322;2023-04-24T05:23:01;1.10;;;0.90;;
62903;SDS011;49000;50.698;13.322;2023-04-24T05:25:27;1.10;;;1.00;;
62903;SDS011;49000;50.698;13.322;2023-04-24T05:27:52;1.73;;;0.90;;
62903;SDS011;49000;50.698;13.322;2023-04-24T05:30:21;1.97;;;0.83;;
62903;SDS011;49000;50.698;13.322;2023-04-24T05:32:46;0.90;;;0.70;;
62903;SDS011;49000;50.698;13.322;2023-04-24T05:35:11;1.40;;;0.87;;
62903;SDS011;49000;50.698;13.322;2023-04-24T05:37:37;2.77;;;0.93;;
62903;SDS011;49000;50.698;13.322;2023-04-24T05:40:03;0.97;;;0.80;;
62903;SDS011;49000;50.698;13.322;2023-04-24T05:42:30;0.97;;;0.87;;
62903;SDS011;49000;50.698;13.322;2023-04-24T05:44:56;1.53;;;0.80;;
62903;SDS011;49000;50.698;13.322;2023-04-24T05:47:21;1.77;;;0.90;;
62903;SDS011;49000;50.698;13.322;2023-04-24T05:49:47;2.40;;;1.30;;
62903;SDS011;49000;50.698;13.322;2023-04-24T05:52:12;1.70;;;0.70;;
62903;SDS011;49000;50.698;13.322;2023-04-24T05:54:38;1.33;;;0.57;;
62903;SDS011;49000;50.698;13.322;2023-04-24T05:57:03;2.40;;;0.80;;
62903;SDS011;49000;50.698;13.322;2023-04-24T05:59:32;1.13;;;0.60;;
62903;SDS011;49000;50.698;13.322;2023-04-24T06:01:58;1.17;;;0.60;;
62903;SDS011;49000;50.698;13.322;2023-04-24T06:04:24;1.33;;;0.70;;
62903;SDS011;49000;50.698;13.322;2023-04-24T06:06:50;1.47;;;0.70;;
62903;SDS011;49000;50.698;13.322;2023-04-24T06:09:20;0.87;;;0.63;;
62903;SDS011;49000;50.698;13.322;2023-04-24T06:11:46;1.30;;;0.70;;
62903;SDS011;49000;50.698;13.322;2023-04-24T06:14:12;1.90;;;0.60;;
62903;SDS011;49000;50.698;13.322;2023-04-24T06:16:37;3.30;;;0.93;;
62903;SDS011;49000;50.698;13.322;2023-04-24T06:19:03;1.33;;;0.60;;
62903;SDS011;49000;50.698;13.322;2023-04-24T06:21:29;2.77;;;0.73;;
62903;SDS011;49000;50.698;13.322;2023-04-24T06:23:54;0.80;;;0.50;;
62903;SDS011;49000;50.698;13.322;2023-04-24T06:26:21;2.80;;;0.70;;
62903;SDS011;49000;50.698;13.322;2023-04-24T06:28:47;1.07;;;0.60;;
62903;SDS011;49000;50.698;13.322;2023-04-24T06:31:12;1.40;;;0.50;;
62903;SDS011;49000;50.698;13.322;2023-04-24T06:33:38;1.03;;;0.70;;
62903;SDS011;49000;50.698;13.322;2023-04-24T06:36:03;1.10;;;0.53;;
62903;SDS011;49000;50.698;13.322;2023-04-24T06:38:29;1.83;;;0.60;;
62903;SDS011;49000;50.698;13.322;2023-04-24T06:40:54;1.47;;;0.53;;
62903;SDS011;49000;50.698;13.322;2023-04-24T06:43:20;1.83;;;0.57;;
62903;SDS011;49000;50.698;13.322;2023-04-24T06:45:46;1.27;;;0.47;;
62903;SDS011;49000;50.698;13.322;2023-04-24T06:48:12;2.10;;;0.50;;
62903;SDS011;49000;50.698;13.322;2023-04-24T06:50:37;0.67;;;0.50;;
62903;SDS011;49000;50.698;13.322;2023-04-24T06:53:03;1.07;;;0.50;;
62903;SDS011;49000;50.698;13.322;2023-04-24T06:55:28;1.10;;;0.60;;
62903;SDS011;49000;50.698;13.322;2023-04-24T06:57:54;2.13;;;0.60;;
62903;SDS011;49000;50.698;13.322;2023-04-24T07:00:19;1.03;;;0.50;;
62903;SDS011;49000;50.698;13.322;2023-04-24T07:02:45;1.67;;;0.40;;
62903;SDS011;49000;50.698;13.322;2023-04-24T07:05:11;0.87;;;0.50;;
62903;SDS011;49000;50.698;13.322;2023-04-24T07:07:37;1.43;;;0.60;;
62903;SDS011;49000;50.698;13.322;2023-04-24T07:10:05;1.03;;;0.50;;
62903;SDS011;49000;50.698;13.322;2023-04-24T07:12:31;3.30;;;0.80;;
62903;SDS011;49000;50.698;13.322;2023-04-24T07:14:57;1.67;;;0.50;;
62903;SDS011;49000;50.698;13.322;2023-04-24T07:17:22;2.33;;;0.60;;
62903;SDS011;49000;50.698;13.322;2023-04-24T07:19:48;1.03;;;0.53;;
62903;SDS011;49000;50.698;13.322;2023-04-24T07:22:13;1.23;;;0.50;;
62903;SDS011;49000;50.698;13.322;2023-04-24T07:24:42;3.20;;;0.70;;
62903;SDS011;49000;50.698;13.322;2023-04-24T07:27:08;0.60;;;0.50;;
62903;SDS011;49000;50.698;13.322;2023-04-24T07:29:34;1.23;;;0.50;;
62903;SDS011;49000;50.698;13.322;2023-04-24T07:32:00;1.70;;;0.60;;
62903;SDS011;49000;50.698;13.322;2023-04-24T07:34:25;2.57;;;0.53;;
62903;SDS011;49000;50.698;13.322;2023-04-24T07:36:51;0.53;;;0.40;;
62903;SDS011;49000;50.698;13.322;2023-04-24T07:39:17;2.30;;;0.50;;
62903;SDS011;49000;50.698;13.322;2023-04-24T07:41:43;0.60;;;0.40;;
62903;SDS011;49000;50.698;13.322;2023-04-24T07:44:08;0.70;;;0.50;;
62903;SDS011;49000;50.698;13.322;2023-04-24T07:46:34;0.57;;;0.37;;
62903;SDS011;49000;50.698;13.322;2023-04-24T07:48:59;0.93;;;0.40;;
62903;SDS011;49000;50.698;13.322;2023-04-24T07:51:26;1.60;;;0.70;;
62903;SDS011;49000;50.698;13.322;2023-04-24T07:53:55;2.10;;;0.50;;
62903;SDS011;49000;50.698;13.322;2023-04-24T07:56:21;1.40;;;0.80;;
62903;SDS011;49000;50.698;13.322;2023-04-24T07:58:46;1.50;;;0.50;;
62903;SDS011;49000;50.698;13.322;2023-04-24T08:01:12;1.53;;;0.30;;
62903;SDS011;49000;50.698;13.322;2023-04-24T08:03:37;3.07;;;0.60;;
62903;SDS011;49000;50.698;13.322;2023-04-24T08:06:03;0.60;;;0.40;;
62903;SDS011;49000;50.698;13.322;2023-04-24T08:08:29;2.60;;;0.60;;
62903;SDS011;49000;50.698;13.322;2023-04-24T08:10:54;1.40;;;0.67;;
62903;SDS011;49000;50.698;13.322;2023-04-24T08:13:20;1.63;;;0.50;;
62903;SDS011;49000;50.698;13.322;2023-04-24T08:15:46;0.73;;;0.40;;
62903;SDS011;49000;50.698;13.322;2023-04-24T08:18:11;2.07;;;0.40;;
62903;SDS011;49000;50.698;13.322;2023-04-24T08:20:38;0.63;;;0.43;;
62903;SDS011;49000;50.698;13.322;2023-04-24T08:23:04;1.07;;;0.40;;
62903;SDS011;49000;50.698;13.322;2023-04-24T08:25:30;1.80;;;0.73;;
62903;SDS011;49000;50.698;13.322;2023-04-24T08:27:55;1.93;;;0.30;;
62903;SDS011;49000;50.698;13.322;2023-04-24T08:30:20;3.20;;;0.57;;
62903;SDS011;49000;50.698;13.322;2023-04-24T08:32:46;0.53;;;0.40;;
62903;SDS011;49000;50.698;13.322;2023-04-24T08:35:12;0.50;;;0.30;;
62903;SDS011;49000;50.698;13.322;2023-04-24T08:37:38;2.73;;;0.40;;
62903;SDS011;49000;50.698;13.322;2023-04-24T08:40:05;1.00;;;0.50;;
62903;SDS011;49000;50.698;13.322;2023-04-24T08:42:35;1.27;;;0.40;;
62903;SDS011;49000;50.698;13.322;2023-04-24T08:45:02;0.53;;;0.47;;
62903;SDS011;49000;50.698;13.322;2023-04-24T08:47:28;0.97;;;0.50;;
62903;SDS011;49000;50.698;13.322;2023-04-24T08:49:54;1.30;;;0.40;;
62903;SDS011;49000;50.698;13.322;2023-04-24T08:52:21;1.37;;;0.50;;
62903;SDS011;49000;50.698;13.322;2023-04-24T08:54:47;1.70;;;0.40;;
62903;SDS011;49000;50.698;13.322;2023-04-24T08:57:13;1.40;;;0.60;;
62903;SDS011;49000;50.698;13.322;2023-04-24T08:59:39;0.93;;;0.33;;
62903;SDS011;49000;50.698;13.322;2023-04-24T09:02:05;1.03;;;0.30;;
62903;SDS011;49000;50.698;13.322;2023-04-24T09:04:34;1.93;;;0.50;;
62903;SDS011;49000;50.698;13.322;2023-04-24T09:07:00;0.87;;;0.53;;
62903;SDS011;49000;50.698;13.322;2023-04-24T09:09:27;0.60;;;0.40;;
62903;SDS011;49000;50.698;13.322;2023-04-24T09:11:55;1.33;;;0.70;;
62903;SDS011;49000;50.698;13.322;2023-04-24T09:14:22;1.83;;;0.50;;
62903;SDS011;49000;50.698;13.322;2023-04-24T09:16:48;1.87;;;0.60;;
62903;SDS011;49000;50.698;13.322;2023-04-24T09:19:15;1.27;;;0.40;;
62903;SDS011;49000;50.698;13.322;2023-04-24T09:21:40;1.50;;;1.00;;
62903;SDS011;49000;50.698;13.322;2023-04-24T09:24:14;1.60;;;0.50;;
62903;SDS011;49000;50.698;13.322;2023-04-24T09:26:42;0.90;;;0.60;;
62903;SDS011;49000;50.698;13.322;2023-04-24T09:29:13;1.20;;;0.50;;
62903;SDS011;49000;50.698;13.322;2023-04-24T09:31:41;2.23;;;0.50;;
62903;SDS011;49000;50.698;13.322;2023-04-24T09:34:06;0.60;;;0.40;;
62903;SDS011;49000;50.698;13.322;2023-04-24T09:36:33;0.50;;;0.40;;
62903;SDS011;49000;50.698;13.322;2023-04-24T09:39:03;0.93;;;0.30;;
62903;SDS011;49000;50.698;13.322;2023-04-24T09:41:31;1.73;;;0.40;;
62903;SDS011;49000;50.698;13.322;2023-04-24T09:43:58;0.90;;;0.50;;
62903;SDS011;49000;50.698;13.322;2023-04-24T09:46:36;1.00;;;0.60;;
62903;SDS011;49000;50.698;13.322;2023-04-24T09:49:34;0.50;;;0.40;;
62903;SDS011;49000;50.698;13.322;2023-04-24T09:52:07;0.90;;;0.60;;
62903;SDS011;49000;50.698;13.322;2023-04-24T09:54:34;1.50;;;0.53;;
62903;SDS011;49000;50.698;13.322;2023-04-24T09:57:04;0.70;;;0.50;;
62903;SDS011;49000;50.698;13.322;2023-04-24T09:59:30;1.50;;;0.50;;
62903;SDS011;49000;50.698;13.322;2023-04-24T10:01:55;0.93;;;0.40;;
62903;SDS011;49000;50.698;13.322;2023-04-24T10:04:24;1.10;;;0.43;;
62903;SDS011;49000;50.698;13.322;2023-04-24T10:06:52;1.53;;;0.53;;
62903;SDS011;49000;50.698;13.322;2023-04-24T10:09:21;1.50;;;0.50;;
62903;SDS011;49000;50.698;13.322;2023-04-24T10:11:48;1.63;;;0.50;;
62903;SDS011;49000;50.698;13.322;2023-04-24T10:14:16;0.67;;;0.47;;
62903;SDS011;49000;50.698;13.322;2023-04-24T10:16:43;0.60;;;0.40;;
62903;SDS011;49000;50.698;13.322;2023-04-24T10:19:11;1.40;;;0.50;;
62903;SDS011;49000;50.698;13.322;2023-04-24T10:21:38;2.17;;;0.70;;
62903;SDS011;49000;50.698;13.322;2023-04-24T10:24:07;0.97;;;0.40;;
62903;SDS011;49000;50.698;13.322;2023-04-24T10:26:34;1.27;;;0.40;;
62903;SDS011;49000;50.698;13.322;2023-04-24T10:29:00;0.70;;;0.40;;
62903;SDS011;49000;50.698;13.322;2023-04-24T10:31:26;0.80;;;0.50;;
62903;SDS011;49000;50.698;13.322;2023-04-24T10:33:55;1.13;;;0.50;;
62903;SDS011;49000;50.698;13.322;2023-04-24T10:36:22;1.80;;;0.67;;
62903;SDS011;49000;50.698;13.322;2023-04-24T10:38:51;0.90;;;0.40;;
62903;SDS011;49000;50.698;13.322;2023-04-24T10:41:19;0.57;;;0.37;;
62903;SDS011;49000;50.698;13.322;2023-04-24T10:43:48;1.60;;;0.60;;
62903;SDS011;49000;50.698;13.322;2023-04-24T10:46:28;0.43;;;0.23;;
62903;SDS011;49000;50.698;13.322;2023-04-24T10:48:55;0.63;;;0.47;;
62903;SDS011;49000;50.698;13.322;2023-04-24T10:51:21;0.63;;;0.43;;
62903;SDS011;49000;50.698;13.322;2023-04-24T10:53:51;0.60;;;0.40;;
62903;SDS011;49000;50.698;13.322;2023-04-24T10:56:17;0.80;;;0.40;;
62903;SDS011;49000;50.698;13.322;2023-04-24T10:58:49;1.50;;;0.47;;
62903;SDS011;49000;50.698;13.322;2023-04-24T11:01:23;0.67;;;0.33;;
62903;SDS011;49000;50.698;13.322;2023-04-24T11:03:57;0.60;;;0.43;;
62903;SDS011;49000;50.698;13.322;2023-04-24T11:06:31;1.40;;;0.90;;
62903;SDS011;49000;50.698;13.322;2023-04-24T11:09:05;1.00;;;0.40;;
62903;SDS011;49000;50.698;13.322;2023-04-24T11:11:31;0.93;;;0.60;;
62903;SDS011;49000;50.698;13.322;2023-04-24T11:16:29;1.17;;;0.60;;
62903;SDS011;49000;50.698;13.322;2023-04-24T11:19:02;0.63;;;0.50;;
62903;SDS011;49000;50.698;13.322;2023-04-24T11:21:42;1.07;;;0.60;;
62903;SDS011;49000;50.698;13.322;2023-04-24T11:24:21;0.50;;;0.50;;
62903;SDS011;49000;50.698;13.322;2023-04-24T11:27:15;0.67;;;0.50;;
62903;SDS011;49000;50.698;13.322;2023-04-24T11:32:29;1.03;;;0.47;;
62903;SDS011;49000;50.698;13.322;2023-04-24T11:35:01;0.70;;;0.50;;
62903;SDS011;49000;50.698;13.322;2023-04-24T11:40:10;1.80;;;0.47;;
62903;SDS011;49000;50.698;13.322;2023-04-24T11:42:40;2.67;;;0.50;;
62903;SDS011;49000;50.698;13.322;2023-04-24T11:45:13;2.23;;;0.70;;
62903;SDS011;49000;50.698;13.322;2023-04-24T11:47:41;0.53;;;0.50;;
62903;SDS011;49000;50.698;13.322;2023-04-24T11:50:08;1.53;;;0.50;;
62903;SDS011;49000;50.698;13.322;2023-04-24T11:52:39;0.97;;;0.80;;
62903;SDS011;49000;50.698;13.322;2023-04-24T11:55:06;1.00;;;0.50;;
62903;SDS011;49000;50.698;13.322;2023-04-24T11:57:33;0.57;;;0.50;;
62903;SDS011;49000;50.698;13.322;2023-04-24T12:00:01;0.60;;;0.60;;
62903;SDS011;49000;50.698;13.322;2023-04-24T12:02:27;1.57;;;0.70;;
62903;SDS011;49000;50.698;13.322;2023-04-24T12:04:53;2.13;;;0.73;;
62903;SDS011;49000;50.698;13.322;2023-04-24T12:07:21;0.77;;;0.67;;
62903;SDS011;49000;50.698;13.322;2023-04-24T12:09:49;0.70;;;0.63;;
62903;SDS011;49000;50.698;13.322;2023-04-24T12:12:23;1.30;;;0.60;;
62903;SDS011;49000;50.698;13.322;2023-04-24T12:14:54;0.83;;;0.60;;
62903;SDS011;49000;50.698;13.322;2023-04-24T12:17:24;2.30;;;0.60;;
62903;SDS011;49000;50.698;13.322;2023-04-24T12:19:59;0.80;;;0.60;;
62903;SDS011;49000;50.698;13.322;2023-04-24T12:22:26;0.77;;;0.73;;
62903;SDS011;49000;50.698;13.322;2023-04-24T12:24:55;1.20;;;0.73;;
62903;SDS011;49000;50.698;13.322;2023-04-24T12:27:25;1.00;;;0.70;;
62903;SDS011;49000;50.698;13.322;2023-04-24T12:29:52;1.17;;;0.67;;
62903;SDS011;49000;50.698;13.322;2023-04-24T12:32:21;1.37;;;0.60;;
62903;SDS011;49000;50.698;13.322;2023-04-24T12:34:47;1.73;;;0.80;;
62903;SDS011;49000;50.698;13.322;2023-04-24T12:37:15;1.13;;;0.90;;
62903;SDS011;49000;50.698;13.322;2023-04-24T12:39:44;1.87;;;0.90;;
62903;SDS011;49000;50.698;13.322;2023-04-24T12:42:26;1.00;;;0.70;;
62903;SDS011;49000;50.698;13.322;2023-04-24T12:44:59;0.90;;;0.70;;
62903;SDS011;49000;50.698;13.322;2023-04-24T12:47:30;2.73;;;0.87;;
62903;SDS011;49000;50.698;13.322;2023-04-24T12:49:56;1.53;;;0.87;;
62903;SDS011;49000;50.698;13.322;2023-04-24T12:52:22;2.10;;;0.80;;
62903;SDS011;49000;50.698;13.322;2023-04-24T12:54:49;0.93;;;0.80;;
62903;SDS011;49000;50.698;13.322;2023-04-24T12:57:15;1.00;;;0.80;;
62903;SDS011;49000;50.698;13.322;2023-04-24T12:59:42;1.70;;;0.67;;
62903;SDS011;49000;50.698;13.322;2023-04-24T13:02:08;1.00;;;0.70;;
62903;SDS011;49000;50.698;13.322;2023-04-24T13:04:35;2.97;;;0.70;;
62903;SDS011;49000;50.698;13.322;2023-04-24T13:07:00;2.43;;;0.80;;
62903;SDS011;49000;50.698;13.322;2023-04-24T13:09:26;4.73;;;1.30;;
62903;SDS011;49000;50.698;13.322;2023-04-24T13:11:51;0.70;;;0.60;;
62903;SDS011;49000;50.698;13.322;2023-04-24T13:14:17;1.03;;;0.90;;
62903;SDS011;49000;50.698;13.322;2023-04-24T13:16:42;2.00;;;0.90;;
62903;SDS011;49000;50.698;13.322;2023-04-24T13:19:08;0.80;;;0.80;;
62903;SDS011;49000;50.698;13.322;2023-04-24T13:21:33;0.90;;;0.80;;
62903;SDS011;49000;50.698;13.322;2023-04-24T13:23:58;1.23;;;0.80;;
62903;SDS011;49000;50.698;13.322;2023-04-24T13:26:24;1.03;;;0.60;;
62903;SDS011;49000;50.698;13.322;2023-04-24T13:28:50;0.80;;;0.80;;
62903;SDS011;49000;50.698;13.322;2023-04-24T13:31:15;2.10;;;0.70;;
62903;SDS011;49000;50.698;13.322;2023-04-24T13:33:41;2.47;;;0.90;;
62903;SDS011;49000;50.698;13.322;2023-04-24T13:36:07;2.30;;;0.90;;
62903;SDS011;49000;50.698;13.322;2023-04-24T13:38:34;1.00;;;0.83;;
62903;SDS011;49000;50.698;13.322;2023-04-24T13:40:59;1.30;;;0.77;;
62903;SDS011;49000;50.698;13.322;2023-04-24T13:43:25;1.00;;;0.80;;
62903;SDS011;49000;50.698;13.322;2023-04-24T13:45:51;0.93;;;0.70;;
62903;SDS011;49000;50.698;13.322;2023-04-24T13:48:16;1.10;;;0.80;;
62903;SDS011;49000;50.698;13.322;2023-04-24T13:50:42;0.80;;;0.70;;
62903;SDS011;49000;50.698;13.322;2023-04-24T13:53:09;0.97;;;0.87;;
62903;SDS011;49000;50.698;13.322;2023-04-24T13:55:34;2.63;;;0.80;;
62903;SDS011;49000;50.698;13.322;2023-04-24T13:58:00;1.00;;;0.90;;
62903;SDS011;49000;50.698;13.322;2023-04-24T14:00:26;1.27;;;0.97;;
62903;SDS011;49000;50.698;13.322;2023-04-24T14:02:52;2.43;;;1.00;;
62903;SDS011;49000;50.698;13.322;2023-04-24T14:05:17;1.33;;;0.70;;
62903;SDS011;49000;50.698;13.322;2023-04-24T14:07:43;1.13;;;0.80;;
62903;SDS011;49000;50.698;13.322;2023-04-24T14:10:08;3.83;;;0.90;;
62903;SDS011;49000;50.698;13.322;2023-04-24T14:12:35;1.20;;;0.90;;
62903;SDS011;49000;50.698;13.322;2023-04-24T14:15:00;0.70;;;0.70;;
62903;SDS011;49000;50.698;13.322;2023-04-24T14:17:26;0.80;;;0.60;;
62903;SDS011;49000;50.698;13.322;2023-04-24T14:19:52;1.57;;;0.70;;
62903;SDS011;49000;50.698;13.322;2023-04-24T14:22:21;0.97;;;0.80;;
62903;SDS011;49000;50.698;13.322;2023-04-24T14:24:46;4.07;;;0.73;;
62903;SDS011;49000;50.698;13.322;2023-04-24T14:27:12;2.30;;;0.70;;
62903;SDS011;49000;50.698;13.322;2023-04-24T14:29:37;1.70;;;1.00;;
62903;SDS011;49000;50.698;13.322;2023-04-24T14:32:02;1.17;;;0.70;;
62903;SDS011;49000;50.698;13.322;2023-04-24T14:34:28;6.30;;;1.10;;
62903;SDS011;49000;50.698;13.322;2023-04-24T14:36:54;2.13;;;1.17;;
62903;SDS011;49000;50.698;13.322;2023-04-24T14:39:19;1.63;;;1.10;;